createdAt,value
2023-03-01T00:01:57.665Z,27.40
2023-03-01T00:04:28.420Z,27.10
2023-03-01T00:06:57.758Z,26.20
2023-03-01T00:09:26.355Z,27.30
2023-03-01T00:11:55.414Z,27.90
2023-03-01T00:14:25.080Z,27.20
2023-03-01T00:16:53.656Z,27.00
2023-03-01T00:19:25.462Z,26.30
2023-03-01T00:21:54.022Z,27.10
2023-03-01T00:24:24.562Z,26.90
2023-03-01T00:26:56.953Z,27.20
2023-03-01T00:29:26.514Z,26.00
2023-03-01T00:31:55.406Z,26.50
2023-03-01T00:34:24.597Z,27.00
2023-03-01T00:36:53.797Z,27.20
2023-03-01T00:39:22.954Z,26.40
2023-03-01T00:41:51.990Z,26.30
2023-03-01T00:44:20.813Z,25.60
2023-03-01T00:46:49.760Z,26.40
2023-03-01T00:49:19.441Z,27.40
2023-03-01T00:51:48.358Z,29.30
2023-03-01T00:54:17.523Z,27.60
2023-03-01T00:56:46.654Z,27.60
2023-03-01T00:59:15.910Z,26.90
2023-03-01T01:01:45.611Z,27.30
2023-03-01T01:04:15.087Z,27.50
2023-03-01T01:06:47.378Z,26.90
2023-03-01T01:09:18.543Z,26.70
2023-03-01T01:11:51.781Z,27.30
2023-03-01T01:14:22.401Z,24.60
2023-03-01T01:16:52.853Z,25.20
2023-03-01T01:19:22.205Z,27.10
2023-03-01T01:21:51.806Z,26.00
2023-03-01T01:24:20.893Z,24.80
2023-03-01T01:26:50.305Z,25.70
2023-03-01T01:29:19.717Z,23.70
2023-03-01T01:31:49.533Z,24.30
2023-03-01T01:34:25.477Z,22.60
2023-03-01T01:36:55.296Z,23.00
2023-03-01T01:39:24.124Z,22.90
2023-03-01T01:41:53.586Z,24.40
2023-03-01T01:44:25.643Z,23.90
2023-03-01T01:47:14.156Z,21.80
2023-03-01T01:49:52.067Z,22.20
2023-03-01T01:52:27.175Z,22.40
2023-03-01T01:55:09.028Z,22.50
2023-03-01T01:57:43.017Z,22.00
2023-03-01T02:00:25.102Z,21.20
2023-03-01T02:03:09.129Z,20.00
2023-03-01T02:05:56.411Z,20.90
2023-03-01T02:08:28.229Z,21.80
2023-03-01T02:11:00.817Z,20.90
2023-03-01T02:13:29.598Z,20.50
2023-03-01T02:15:58.092Z,20.00
2023-03-01T02:18:26.876Z,19.50
2023-03-01T02:21:19.823Z,20.00
2023-03-01T02:23:48.187Z,19.40
2023-03-01T02:26:38.077Z,18.40
2023-03-01T02:29:07.083Z,17.50
2023-03-01T02:31:44.477Z,17.50
2023-03-01T02:34:20.584Z,17.10
2023-03-01T02:39:43.129Z,16.10
2023-03-01T02:42:18.011Z,16.10
2023-03-01T02:44:46.182Z,15.60
2023-03-01T02:47:14.566Z,16.30
2023-03-01T02:49:42.913Z,16.80
2023-03-01T02:52:21.163Z,16.70
2023-03-01T02:55:05.428Z,15.10
2023-03-01T02:57:36.774Z,14.90
2023-03-01T03:00:20.665Z,15.10
2023-03-01T03:02:54.914Z,14.50
2023-03-01T03:05:28.893Z,14.20
2023-03-01T03:08:00.952Z,14.30
2023-03-01T03:10:36.316Z,13.80
2023-03-01T03:13:11.576Z,13.90
2023-03-01T03:15:41.189Z,14.40
2023-03-01T03:18:17.132Z,14.20
2023-03-01T03:20:46.386Z,14.70
2023-03-01T03:23:15.144Z,15.40
2023-03-01T03:25:43.208Z,13.10
2023-03-01T03:28:11.728Z,14.80
2023-03-01T03:30:42.128Z,13.50
2023-03-01T03:33:13.709Z,14.60
2023-03-01T03:35:47.624Z,14.50
2023-03-01T03:38:18.225Z,13.30
2023-03-01T03:40:49.169Z,13.00
2023-03-01T03:43:19.903Z,13.30
2023-03-01T03:45:50.167Z,14.60
2023-03-01T03:48:19.484Z,14.00
2023-03-01T03:50:53.274Z,13.20
2023-03-01T03:53:22.934Z,13.40
2023-03-01T03:55:52.600Z,13.60
2023-03-01T03:58:23.414Z,12.90
2023-03-01T04:00:54.349Z,14.30
2023-03-01T04:03:23.449Z,14.10
2023-03-01T04:05:51.688Z,11.50
2023-03-01T04:08:24.722Z,12.80
2023-03-01T04:10:57.726Z,12.20
2023-03-01T04:13:26.498Z,12.70
2023-03-01T04:15:55.761Z,12.60
2023-03-01T04:18:26.159Z,12.90
2023-03-01T04:20:56.475Z,12.10
2023-03-01T04:23:25.143Z,12.40
2023-03-01T04:25:56.992Z,11.60
2023-03-01T04:28:30.106Z,11.10
2023-03-01T04:30:59.482Z,11.80
2023-03-01T04:33:27.586Z,11.00
2023-03-01T04:35:56.087Z,12.20
2023-03-01T04:38:24.469Z,10.90
2023-03-01T04:40:52.623Z,10.90
2023-03-01T04:43:20.713Z,10.70
2023-03-01T04:45:48.976Z,11.00
2023-03-01T04:48:17.014Z,11.00
2023-03-01T04:50:45.229Z,10.90
2023-03-01T04:53:13.320Z,9.80
2023-03-01T04:55:41.379Z,11.20
2023-03-01T04:58:09.547Z,10.70
2023-03-01T05:00:37.856Z,10.40
2023-03-01T05:03:06.287Z,11.50
2023-03-01T05:05:37.698Z,10.90
2023-03-01T05:08:09.708Z,10.30
2023-03-01T05:10:39.783Z,11.00
2023-03-01T05:13:07.860Z,9.60
2023-03-01T05:15:37.653Z,10.70
2023-03-01T05:18:12.315Z,10.10
2023-03-01T05:20:40.475Z,10.00
2023-03-01T05:23:08.658Z,10.50
2023-03-01T05:25:41.309Z,10.90
2023-03-01T05:28:13.200Z,11.00
2023-03-01T05:30:42.413Z,9.90
2023-03-01T05:33:16.424Z,11.80
2023-03-01T05:35:46.430Z,10.50
2023-03-01T05:38:14.530Z,11.10
2023-03-01T05:40:44.833Z,11.10
2023-03-01T05:43:14.651Z,11.50
2023-03-01T05:45:44.040Z,11.30
2023-03-01T05:48:13.494Z,11.30
2023-03-01T05:50:44.288Z,11.50
2023-03-01T05:53:18.317Z,11.40
2023-03-01T05:55:48.457Z,12.10
2023-03-01T05:58:19.012Z,11.10
2023-03-01T06:00:49.518Z,12.60
2023-03-01T06:03:19.031Z,12.70
2023-03-01T06:05:47.426Z,13.00
2023-03-01T06:08:15.990Z,13.00
2023-03-01T06:10:44.070Z,11.90
2023-03-01T06:13:12.144Z,12.40
2023-03-01T06:15:40.468Z,12.30
2023-03-01T06:18:10.003Z,10.80
2023-03-01T06:20:38.117Z,11.90
2023-03-01T06:23:06.503Z,11.40
2023-03-01T06:25:34.830Z,12.90
2023-03-01T06:28:03.043Z,12.80
2023-03-01T06:30:31.402Z,12.70
2023-03-01T06:33:02.580Z,13.10
2023-03-01T06:35:32.199Z,13.10
2023-03-01T06:38:02.339Z,12.60
2023-03-01T06:40:32.282Z,13.10
2023-03-01T06:43:00.616Z,13.70
2023-03-01T06:45:28.905Z,13.10
2023-03-01T06:48:07.950Z,12.50
2023-03-01T06:50:36.941Z,12.30
2023-03-01T06:53:05.725Z,14.10
2023-03-01T06:55:34.640Z,13.10
2023-03-01T06:58:04.227Z,14.00
2023-03-01T07:00:33.241Z,13.70
2023-03-01T07:03:03.575Z,13.70
2023-03-01T07:05:31.876Z,14.20
2023-03-01T07:08:00.134Z,13.20
2023-03-01T07:10:29.008Z,14.40
2023-03-01T07:12:58.869Z,14.70
2023-03-01T07:15:28.260Z,14.30
2023-03-01T07:17:57.651Z,14.30
2023-03-01T07:20:26.647Z,16.90
2023-03-01T07:22:59.423Z,16.30
2023-03-01T07:25:27.798Z,18.40
2023-03-01T07:27:55.875Z,20.70
2023-03-01T07:30:26.969Z,21.20
2023-03-01T07:32:56.443Z,21.50
2023-03-01T07:35:27.787Z,20.80
2023-03-01T07:37:55.921Z,21.50
2023-03-01T07:40:24.177Z,20.30
2023-03-01T07:42:57.442Z,19.90
2023-03-01T07:45:29.449Z,19.50
2023-03-01T07:47:57.909Z,19.40
2023-03-01T07:50:25.832Z,18.70
2023-03-01T07:52:53.953Z,20.10
2023-03-01T07:55:22.160Z,18.50
2023-03-01T07:57:50.072Z,17.70
2023-03-01T08:00:18.380Z,18.20
2023-03-01T08:02:46.544Z,17.60
2023-03-01T08:05:14.806Z,17.00
2023-03-01T08:07:42.793Z,16.60
2023-03-01T08:10:12.101Z,18.00
2023-03-01T08:12:40.085Z,16.60
2023-03-01T08:15:08.961Z,17.60
2023-03-01T08:17:36.941Z,17.20
2023-03-01T08:20:07.767Z,17.30
2023-03-01T08:22:35.753Z,16.40
2023-03-01T08:25:03.922Z,15.20
2023-03-01T08:27:31.810Z,16.40
2023-03-01T08:29:59.717Z,17.20
2023-03-01T08:32:27.796Z,17.60
2023-03-01T08:34:55.840Z,16.00
2023-03-01T08:37:24.112Z,16.00
2023-03-01T08:39:52.168Z,16.50
2023-03-01T08:42:20.136Z,16.40
2023-03-01T08:44:48.032Z,15.20
2023-03-01T08:47:16.012Z,16.40
2023-03-01T08:49:43.987Z,15.90
2023-03-01T08:52:11.957Z,15.20
2023-03-01T08:54:39.934Z,16.50
2023-03-01T08:57:07.903Z,15.50
2023-03-01T08:59:38.429Z,16.00
2023-03-01T09:02:12.474Z,16.10
2023-03-01T09:04:41.766Z,16.70
2023-03-01T09:07:10.442Z,16.60
2023-03-01T09:09:38.877Z,18.20
2023-03-01T09:12:07.090Z,17.10
2023-03-01T09:14:35.086Z,16.60
2023-03-01T09:17:04.164Z,17.00
2023-03-01T09:19:32.248Z,15.50
2023-03-01T09:22:00.334Z,15.90
2023-03-01T09:24:28.311Z,16.40
2023-03-01T09:26:57.550Z,16.00
2023-03-01T09:29:27.013Z,16.60
2023-03-01T09:31:56.450Z,16.50
2023-03-01T09:34:25.030Z,17.30
2023-03-01T09:36:53.057Z,15.90
2023-03-01T09:39:21.710Z,16.80
2023-03-01T09:42:05.327Z,15.80
2023-03-01T09:44:58.772Z,16.20
2023-03-01T09:47:31.447Z,16.10
2023-03-01T09:50:11.702Z,16.40
2023-03-01T09:52:47.992Z,16.50
2023-03-01T09:55:54.522Z,17.30
2023-03-01T09:58:31.591Z,16.40
2023-03-01T10:01:11.864Z,16.50
2023-03-01T10:03:45.465Z,15.10
2023-03-01T10:06:33.969Z,16.20
2023-03-01T10:09:15.177Z,15.30
2023-03-01T10:11:51.347Z,14.80
2023-03-01T10:14:19.318Z,14.90
2023-03-01T10:17:03.906Z,15.50
2023-03-01T10:19:42.677Z,14.90
2023-03-01T10:22:23.581Z,15.40
2023-03-01T10:24:54.005Z,14.40
2023-03-01T10:27:26.052Z,14.40
2023-03-01T10:30:21.982Z,15.90
2023-03-01T10:32:53.838Z,13.40
2023-03-01T10:35:28.856Z,13.60
2023-03-01T10:38:17.419Z,13.90
2023-03-01T10:40:55.931Z,13.30
2023-03-01T10:43:26.162Z,14.80
2023-03-01T10:45:54.758Z,14.30
2023-03-01T10:48:29.487Z,12.20
2023-03-01T10:51:00.274Z,11.50
2023-03-01T10:53:34.338Z,12.60
2023-03-01T10:56:02.389Z,11.20
2023-03-01T10:58:31.309Z,12.20
2023-03-01T11:01:03.456Z,11.40
2023-03-01T11:03:32.869Z,11.10
2023-03-01T11:06:27.416Z,11.10
2023-03-01T11:08:55.344Z,11.00
2023-03-01T11:11:32.570Z,10.90
2023-03-01T11:14:24.948Z,10.70
2023-03-01T11:17:01.638Z,10.80
2023-03-01T11:19:30.399Z,10.40
2023-03-01T11:21:58.725Z,9.70
2023-03-01T11:24:35.042Z,10.00
2023-03-01T11:27:05.940Z,10.00
2023-03-01T11:29:49.425Z,10.00
2023-03-01T11:32:20.080Z,9.40
2023-03-01T11:34:59.258Z,8.10
2023-03-01T11:37:41.179Z,7.50
2023-03-01T11:40:24.313Z,7.40
2023-03-01T11:43:01.392Z,7.10
2023-03-01T11:45:47.211Z,7.50
2023-03-01T11:48:48.445Z,7.10
2023-03-01T11:51:26.420Z,6.60
2023-03-01T11:54:31.878Z,6.50
2023-03-01T11:57:44.562Z,5.80
2023-03-01T12:00:49.290Z,6.40
2023-03-01T12:03:55.573Z,6.10
2023-03-01T12:06:45.506Z,5.80
2023-03-01T12:09:13.775Z,6.10
2023-03-01T12:12:04.480Z,6.10
2023-03-01T12:15:05.358Z,5.70
2023-03-01T12:17:58.951Z,6.20
2023-03-01T12:20:30.527Z,6.20
2023-03-01T12:23:20.348Z,6.70
2023-03-01T12:26:03.696Z,5.90
2023-03-01T12:29:09.633Z,6.30
2023-03-01T12:31:56.017Z,5.40
2023-03-01T12:34:38.535Z,5.50
2023-03-01T12:37:35.005Z,5.70
2023-03-01T12:40:18.900Z,5.80
2023-03-01T12:43:05.738Z,5.40
2023-03-01T12:45:34.124Z,5.30
2023-03-01T12:48:08.537Z,5.80
2023-03-01T12:50:43.172Z,5.20
2023-03-01T12:53:40.075Z,5.30
2023-03-01T12:56:13.139Z,5.60
2023-03-01T12:58:53.375Z,5.60
2023-03-01T13:01:27.542Z,5.50
2023-03-01T13:04:07.465Z,6.40
2023-03-01T13:07:13.775Z,5.60
2023-03-01T13:10:42.270Z,5.10
2023-03-01T13:13:25.091Z,5.00
2023-03-01T13:15:54.354Z,5.60
2023-03-01T13:18:26.687Z,4.90
2023-03-01T13:21:00.633Z,5.10
2023-03-01T13:23:33.325Z,5.20
2023-03-01T13:26:05.015Z,5.30
2023-03-01T13:28:33.363Z,5.40
2023-03-01T13:31:07.217Z,5.00
2023-03-01T13:33:45.533Z,5.00
2023-03-01T13:36:33.673Z,5.10
2023-03-01T13:39:05.503Z,5.00
2023-03-01T13:42:01.316Z,4.70
2023-03-01T13:47:10.858Z,4.70
2023-03-01T13:49:55.041Z,4.30
2023-03-01T13:53:03.137Z,5.20
2023-03-01T13:55:38.980Z,5.40
2023-03-01T13:58:51.060Z,5.30
2023-03-01T14:01:26.969Z,4.90
2023-03-01T14:03:56.568Z,4.90
2023-03-01T14:06:31.981Z,4.80
2023-03-01T14:12:03.607Z,4.40
2023-03-01T14:14:39.503Z,4.70
2023-03-01T14:17:38.986Z,4.70
2023-03-01T14:20:18.548Z,4.70
2023-03-01T14:22:49.197Z,5.20
2023-03-01T14:25:25.100Z,4.80
2023-03-01T14:28:38.463Z,5.40
2023-03-01T14:31:29.335Z,5.30
2023-03-01T14:33:58.558Z,5.20
2023-03-01T14:36:29.474Z,4.80
2023-03-01T14:39:05.767Z,4.30
2023-03-01T14:41:37.300Z,5.00
2023-03-01T14:44:17.597Z,4.90
2023-03-01T14:46:46.129Z,5.20
2023-03-01T14:49:18.653Z,4.90
2023-03-01T14:52:06.551Z,4.40
2023-03-01T14:54:43.250Z,4.70
2023-03-01T14:57:26.347Z,5.10
2023-03-01T15:00:01.622Z,5.10
2023-03-01T15:02:31.553Z,5.10
2023-03-01T15:05:03.276Z,4.80
2023-03-01T15:07:38.764Z,4.20
2023-03-01T15:10:16.140Z,5.20
2023-03-01T15:12:54.935Z,4.60
2023-03-01T15:15:31.627Z,4.90
2023-03-01T15:18:02.938Z,4.20
2023-03-01T15:20:36.494Z,4.10
2023-03-01T15:23:05.241Z,4.10
2023-03-01T15:25:34.994Z,4.30
2023-03-01T15:28:04.119Z,4.00
2023-03-01T15:30:39.039Z,3.80
2023-03-01T15:33:35.879Z,4.00
2023-03-01T15:36:37.533Z,4.20
2023-03-01T15:39:07.405Z,3.90
2023-03-01T15:41:49.645Z,4.30
2023-03-01T15:44:35.028Z,4.50
2023-03-01T15:47:33.802Z,4.30
2023-03-01T15:50:03.871Z,4.50
2023-03-01T15:52:41.192Z,4.70
2023-03-01T15:55:25.553Z,4.80
2023-03-01T15:58:14.291Z,4.90
2023-03-01T16:00:59.381Z,4.90
2023-03-01T16:03:29.731Z,4.50
2023-03-01T16:05:58.135Z,5.20
2023-03-01T16:08:26.224Z,4.40
2023-03-01T16:10:55.738Z,4.20
2023-03-01T16:13:24.635Z,4.60
2023-03-01T16:15:53.473Z,4.30
2023-03-01T16:18:21.927Z,4.40
2023-03-01T16:20:51.122Z,4.60
2023-03-01T16:23:19.522Z,5.30
2023-03-01T16:25:48.132Z,4.90
2023-03-01T16:28:16.798Z,4.30
2023-03-01T16:30:49.782Z,4.60
2023-03-01T16:33:29.179Z,4.60
2023-03-01T16:36:13.130Z,4.30
2023-03-01T16:38:42.117Z,3.70
2023-03-01T16:41:16.177Z,4.40
2023-03-01T16:43:47.749Z,4.50
2023-03-01T16:46:19.135Z,4.50
2023-03-01T16:48:48.776Z,4.40
2023-03-01T16:51:17.871Z,4.60
2023-03-01T16:53:47.646Z,3.80
2023-03-01T16:56:17.111Z,4.50
2023-03-01T16:58:46.315Z,4.30
2023-03-01T17:01:21.113Z,4.60
2023-03-01T17:03:51.084Z,4.30
2023-03-01T17:06:23.343Z,4.30
2023-03-01T17:08:51.970Z,4.50
2023-03-01T17:11:21.631Z,6.20
2023-03-01T17:13:50.345Z,8.30
2023-03-01T17:16:21.120Z,8.80
2023-03-01T17:18:50.117Z,9.30
2023-03-01T17:21:20.411Z,9.40
2023-03-01T17:23:50.529Z,10.80
2023-03-01T17:26:20.502Z,10.80
2023-03-01T17:28:53.807Z,10.90
2023-03-01T17:31:23.989Z,10.30
2023-03-01T17:33:53.227Z,9.70
2023-03-01T17:36:21.672Z,9.70
2023-03-01T17:38:51.066Z,9.60
2023-03-01T17:41:20.797Z,11.80
2023-03-01T17:43:48.960Z,9.80
2023-03-01T17:46:18.095Z,8.60
2023-03-01T17:48:47.120Z,9.10
2023-03-01T17:51:15.696Z,9.20
2023-03-01T17:53:44.997Z,9.30
2023-03-01T17:56:16.954Z,8.90
2023-03-01T17:58:47.075Z,9.10
2023-03-01T18:01:20.468Z,9.90
2023-03-01T18:03:53.319Z,9.70
2023-03-01T18:06:25.062Z,10.80
2023-03-01T18:08:55.383Z,10.40
2023-03-01T18:11:26.042Z,10.60
2023-03-01T18:13:55.865Z,10.60
2023-03-01T18:16:25.544Z,10.40
2023-03-01T18:18:56.943Z,10.60
2023-03-01T18:21:25.728Z,9.90
2023-03-01T18:23:54.941Z,10.40
2023-03-01T18:26:25.352Z,11.10
2023-03-01T18:28:54.574Z,10.20
2023-03-01T18:31:24.745Z,11.20
2023-03-01T18:33:55.340Z,11.30
2023-03-01T18:36:30.376Z,10.50
2023-03-01T18:38:59.763Z,11.40
2023-03-01T18:41:29.189Z,11.00
2023-03-01T18:43:57.810Z,10.40
2023-03-01T18:46:26.820Z,10.30
2023-03-01T18:48:56.197Z,12.10
2023-03-01T18:51:28.960Z,10.50
2023-03-01T18:54:01.752Z,10.90
2023-03-01T18:56:35.179Z,10.90
2023-03-01T18:59:04.925Z,11.50
2023-03-01T19:01:36.861Z,11.00
2023-03-01T19:04:06.765Z,12.70
2023-03-01T19:06:36.972Z,11.50
2023-03-01T19:09:07.424Z,11.80
2023-03-01T19:11:35.940Z,11.50
2023-03-01T19:14:05.166Z,12.00
2023-03-01T19:16:35.337Z,11.40
2023-03-01T19:19:08.703Z,12.40
2023-03-01T19:21:38.869Z,11.70
2023-03-01T19:24:07.859Z,12.00
2023-03-01T19:26:37.032Z,11.80
2023-03-01T19:29:06.430Z,12.20
2023-03-01T19:31:35.985Z,12.30
2023-03-01T19:34:11.458Z,14.00
2023-03-01T19:36:43.002Z,13.00
2023-03-01T19:39:13.885Z,15.40
2023-03-01T19:41:44.500Z,14.50
2023-03-01T19:44:13.067Z,16.30
2023-03-01T19:46:42.088Z,16.80
2023-03-01T19:49:10.793Z,16.40
2023-03-01T19:51:39.677Z,16.70
2023-03-01T19:54:10.128Z,16.00
2023-03-01T19:56:50.948Z,16.80
2023-03-01T19:59:24.680Z,16.50
2023-03-01T20:01:53.629Z,16.80
2023-03-01T20:04:24.409Z,15.80
2023-03-01T20:06:54.270Z,16.70
2023-03-01T20:09:22.774Z,16.50
2023-03-01T20:11:51.748Z,17.40
2023-03-01T20:14:23.269Z,16.90
2023-03-01T20:16:54.584Z,17.10
2023-03-01T20:19:22.931Z,16.80
2023-03-01T20:21:51.598Z,16.00
2023-03-01T20:24:20.302Z,16.00
2023-03-01T20:26:49.316Z,16.60
2023-03-01T20:29:17.679Z,16.10
2023-03-01T20:31:46.790Z,15.40
2023-03-01T20:34:15.975Z,15.20
2023-03-01T20:36:44.508Z,16.00
2023-03-01T20:39:14.650Z,15.20
2023-03-01T20:41:43.968Z,15.80
2023-03-01T20:44:12.566Z,15.90
2023-03-01T20:46:40.928Z,16.60
2023-03-01T20:49:10.983Z,16.70
2023-03-01T20:51:39.694Z,15.40
2023-03-01T20:54:08.067Z,16.40
2023-03-01T20:56:36.231Z,16.20
2023-03-01T20:59:08.200Z,16.90
2023-03-01T21:01:38.847Z,17.00
2023-03-01T21:04:07.430Z,17.00
2023-03-01T21:06:38.295Z,17.10
2023-03-01T21:09:07.050Z,18.20
2023-03-01T21:11:35.935Z,17.30
2023-03-01T21:14:08.042Z,17.10
2023-03-01T21:16:37.437Z,17.90
2023-03-01T21:19:06.325Z,18.20
2023-03-01T21:21:34.686Z,18.50
2023-03-01T21:24:03.866Z,17.60
2023-03-01T21:26:33.120Z,18.90
2023-03-01T21:29:02.487Z,18.30
2023-03-01T21:31:35.041Z,19.30
2023-03-01T21:34:06.801Z,19.60
2023-03-01T21:36:36.475Z,20.00
2023-03-01T21:39:06.971Z,19.10
2023-03-01T21:41:37.644Z,19.20
2023-03-01T21:44:08.018Z,20.10
2023-03-01T21:46:38.845Z,18.40
2023-03-01T21:49:10.813Z,20.00
2023-03-01T21:51:40.172Z,20.70
2023-03-01T21:54:12.352Z,20.20
2023-03-01T21:56:40.693Z,21.00
2023-03-01T21:59:13.596Z,19.00
2023-03-01T22:01:43.115Z,19.80
2023-03-01T22:04:13.393Z,19.90
2023-03-01T22:06:44.819Z,19.80
2023-03-01T22:09:15.516Z,19.60
2023-03-01T22:11:46.707Z,18.00
2023-03-01T22:14:17.803Z,19.20
2023-03-01T22:16:48.013Z,17.40
2023-03-01T22:19:17.958Z,19.20
2023-03-01T22:21:49.946Z,18.70
2023-03-01T22:24:21.856Z,18.00
2023-03-01T22:26:52.627Z,18.30
2023-03-01T22:29:25.011Z,17.70
2023-03-01T22:31:55.319Z,17.90
2023-03-01T22:34:23.904Z,18.00
2023-03-01T22:36:52.840Z,18.40
2023-03-01T22:39:22.736Z,18.30
2023-03-01T22:41:54.708Z,18.30
2023-03-01T22:44:24.085Z,16.80
2023-03-01T22:46:53.586Z,17.00
2023-03-01T22:49:22.582Z,17.70
2023-03-01T22:51:51.875Z,17.20
2023-03-01T22:54:21.523Z,17.30
2023-03-01T22:56:50.279Z,17.30
2023-03-01T22:59:23.336Z,17.00
2023-03-01T23:01:53.030Z,16.70
2023-03-01T23:04:22.913Z,17.60
2023-03-01T23:06:54.547Z,17.20
2023-03-01T23:09:24.961Z,17.70
2023-03-01T23:11:54.764Z,16.10
2023-03-01T23:14:24.973Z,16.00
2023-03-01T23:16:54.284Z,17.10
2023-03-01T23:19:24.166Z,16.80
2023-03-01T23:21:54.516Z,17.00
2023-03-01T23:24:31.900Z,15.90
2023-03-01T23:27:02.363Z,17.10
2023-03-01T23:29:31.414Z,16.00
2023-03-01T23:32:01.608Z,16.40
2023-03-01T23:34:30.677Z,17.10
2023-03-01T23:36:59.241Z,15.60
2023-03-01T23:39:30.200Z,14.90
2023-03-01T23:41:59.403Z,15.80
2023-03-01T23:44:28.301Z,15.40
2023-03-01T23:46:56.738Z,16.30
2023-03-01T23:49:25.567Z,16.60
2023-03-01T23:51:54.177Z,14.70
2023-03-01T23:54:24.903Z,15.00
2023-03-01T23:56:54.459Z,14.60
2023-03-01T23:59:25.091Z,15.60
